Olympic Star — WDF3678 — position and weather

sailwx.info

Track history (hours):
 
Tides and Currents Weather Stations Pressure Air Temp Water Temp Dewpoint Dewpoint Depression Visibility Wind Speed Wind Dir Waves Ship Positions

Olympic Star

Owner: Waterways Holdings, Seattle, WA. More information available from US FCC via Universal Licensing System and Coast Guard Vessel Documentation Center.

Last reported at 2018-Jul-14 04:20 UTC. Time now 2018-Jul-16 12:41 UTC.
Position N 47°39' W 122°20'.

Length 26 m; draft 1.5 m.

Type: Passenger vessel. MMSI: 367442780.

Date/timePositionNaut miles runAvg speedWind from/ knotsBaromVisibWave heightAir tempDewpointWater temp
2018-Jul-14 04:20N 47°39' W 122°20'0 0.4
2018-Jul-14 04:00N 47°39' W 122°20'0 1.0
2018-Jul-14 03:30N 47°39' W 122°20'4 5.6
2018-Jul-14 02:50N 47°38' W 122°15'1 2.6
2018-Jul-14 02:15N 47°37' W 122°15'2 7.8
2018-Jul-14 01:59N 47°39' W 122°17'2 3.6
2018-Jul-14 01:22N 47°39' W 122°20'0 0.0
2018-Jul-14 00:24N 47°39' W 122°20'0 0.0
2018-Jul-13 23:47N 47°39' W 122°20'0 0.0
2018-Jul-13 23:17N 47°39' W 122°20'0 0.0
2018-Jul-13 22:59N 47°39' W 122°20'3 2.0
2018-Jul-13 21:16N 47°39' W 122°15'3 7.8
2018-Jul-13 20:56N 47°39' W 122°18'3 2.6
2018-Jul-13 19:41N 47°37' W 122°15'2 0.9
2018-Jul-13 17:15N 47°39' W 122°16'2 6.7
2018-Jul-13 16:57N 47°39' W 122°19'0 0.0
2018-Jul-12 21:54N 47°39' W 122°20'0 0.0
2018-Jul-12 21:30N 47°39' W 122°20'0 0.0
2018-Jul-12 21:00N 47°39' W 122°20'0 0.1
2018-Jul-12 20:30N 47°39' W 122°20'1 1.4
2018-Jul-12 20:00N 47°39' W 122°21'0 0.3
2018-Jul-12 19:30N 47°39' W 122°21'3 5.8
2018-Jul-12 19:00N 47°39' W 122°16'2 4.7
2018-Jul-12 18:30N 47°39' W 122°20'0 0.0
2018-Jul-12 18:00N 47°39' W 122°20'0 0.0
2018-Jul-12 17:30N 47°39' W 122°20'0 0.0
2018-Jul-12 17:01N 47°39' W 122°20'0 0.0
2018-Jul-12 16:30N 47°39' W 122°20'0 0.0
2018-Jul-12 16:00N 47°39' W 122°20'1 1.5
2018-Jul-12 15:30N 47°39' W 122°21'1 1.4
2018-Jul-12 15:00N 47°39' W 122°20'0 0.0
2018-Jul-12 00:48N 47°39' W 122°20'0 0.0
2018-Jul-12 00:24N 47°39' W 122°20'0 0.0
2018-Jul-12 00:00N 47°39' W 122°20'1 2.4
2018-Jul-11 23:30N 47°38' W 122°20'1 2.6
2018-Jul-11 22:58N 47°39' W 122°19'3 6.2
2018-Jul-11 22:30N 47°38' W 122°15'3 4.3
2018-Jul-11 21:55N 47°39' W 122°18'1 2.3
2018-Jul-11 21:29N 47°39' W 122°20'0 0.0
2018-Jul-11 21:00N 47°39' W 122°20'0 0.0
2018-Jul-11 20:29N 47°39' W 122°20'0 0.0
2018-Jul-11 20:00N 47°39' W 122°20'0 0.2
2018-Jul-11 19:31N 47°39' W 122°20'0 0.2
2018-Jul-11 19:01N 47°39' W 122°20'0 0.0
2018-Jul-11 18:30N 47°39' W 122°20'0 0.0
2018-Jul-11 18:00N 47°39' W 122°20'0 0.0
2018-Jul-11 17:30N 47°39' W 122°20'0 0.0
2018-Jul-11 17:00N 47°39' W 122°20'0 0.0
2018-Jul-11 16:29N 47°39' W 122°20'0 0.0
2018-Jul-11 15:59N 47°39' W 122°20'0 0.0
2018-Jul-11 15:31N 47°39' W 122°20'0 0.0
2018-Jul-11 15:00N 47°39' W 122°20'0 0.0
2018-Jul-11 14:30N 47°39' W 122°20'0 0.0
2018-Jul-11 14:00N 47°39' W 122°20'0 0.0
2018-Jul-11 13:30N 47°39' W 122°20'0 0.0
2018-Jul-11 13:00N 47°39' W 122°20'0 0.0
2018-Jul-11 12:30N 47°39' W 122°20'0 0.0
2018-Jul-11 12:00N 47°39' W 122°20'0 0.0
2018-Jul-11 11:31N 47°39' W 122°20'0 0.0
2018-Jul-11 11:00N 47°39' W 122°20'0 0.0
2018-Jul-11 10:31N 47°39' W 122°20'0 0.0
2018-Jul-11 10:01N 47°39' W 122°20'0 0.0
2018-Jul-11 09:31N 47°39' W 122°20'0 0.0
2018-Jul-11 09:01N 47°39' W 122°20'0 0.0
2018-Jul-11 08:31N 47°39' W 122°20'0 0.0
2018-Jul-11 08:01N 47°39' W 122°20'0 0.0
2018-Jul-11 07:30N 47°39' W 122°20'0 0.0
2018-Jul-11 07:00N 47°39' W 122°20'0 0.0
2018-Jul-11 06:30N 47°39' W 122°20'0 0.0
2018-Jul-11 06:01N 47°39' W 122°20'0 0.0
2018-Jul-11 05:31N 47°39' W 122°20'0 0.0
2018-Jul-11 04:59N 47°39' W 122°20'0 0.0
2018-Jul-11 04:30N 47°39' W 122°20'0 0.0
2018-Jul-11 04:00N 47°39' W 122°20'0 0.0
2018-Jul-11 03:30N 47°39' W 122°20'0 0.0
2018-Jul-11 03:01N 47°39' W 122°20'0 0.0
2018-Jul-11 02:30N 47°39' W 122°20'0 0.0
2018-Jul-11 02:00N 47°39' W 122°20'0 0.0
2018-Jul-11 01:30N 47°39' W 122°20'0 0.0
2018-Jul-11 01:01N 47°39' W 122°20'0 0.0
2018-Jul-11 00:30N 47°39' W 122°20'0 0.0
2018-Jul-11 00:00N 47°39' W 122°20'0 0.0
2018-Jul-10 23:30N 47°39' W 122°20'0 0.0
2018-Jul-10 23:00N 47°39' W 122°20'0 0.0
2018-Jul-10 22:30N 47°39' W 122°20'0 0.0
2018-Jul-10 22:00N 47°39' W 122°20'0 0.0
2018-Jul-10 21:30N 47°39' W 122°20'0 0.0
2018-Jul-10 21:00N 47°39' W 122°20'0 0.0
2018-Jul-10 20:30N 47°39' W 122°20'0 0.0
2018-Jul-10 20:00N 47°39' W 122°20'0 0.0
2018-Jul-10 19:30N 47°39' W 122°20'0 0.0
2018-Jul-10 19:00N 47°39' W 122°20'0 0.0
2018-Jul-10 18:30N 47°39' W 122°20'0 0.0
2018-Jul-10 18:00N 47°39' W 122°20'0 0.0
2018-Jul-10 17:31N 47°39' W 122°20'0 0.0
2018-Jul-10 17:01N 47°39' W 122°20'0 0.0
2018-Jul-10 16:30N 47°39' W 122°20'0 0.0
2018-Jul-10 16:00N 47°39' W 122°20'0 0.0
2018-Jul-10 15:31N 47°39' W 122°20'0 0.0
2018-Jul-10 15:01N 47°39' W 122°20'0 0.0
2018-Jul-10 14:30N 47°39' W 122°20'0 0.0
2018-Jul-10 13:57N 47°39' W 122°20'0 0.0
2018-Jul-10 13:30N 47°39' W 122°20'0 0.0
2018-Jul-10 13:00N 47°39' W 122°20'0 0.0
2018-Jul-10 12:30N 47°39' W 122°20'0 0.0
2018-Jul-10 12:00N 47°39' W 122°20'0 0.0
2018-Jul-10 11:30N 47°39' W 122°20'0 0.0
2018-Jul-10 11:00N 47°39' W 122°20'0 0.0
2018-Jul-10 10:30N 47°39' W 122°20'0 0.0
2018-Jul-10 10:00N 47°39' W 122°20'0 0.0
2018-Jul-10 09:30N 47°39' W 122°20'0 0.0
2018-Jul-10 09:01N 47°39' W 122°20'0 0.0
2018-Jul-10 08:31N 47°39' W 122°20'0 0.0
2018-Jul-10 08:01N 47°39' W 122°20'0 0.0
2018-Jul-10 07:30N 47°39' W 122°20'0 0.0
2018-Jul-10 07:01N 47°39' W 122°20'0 0.0
2018-Jul-10 06:30N 47°39' W 122°20'0 0.0
2018-Jul-10 06:00N 47°39' W 122°20'0 0.0
2018-Jul-10 05:30N 47°39' W 122°20'0 0.0
2018-Jul-10 05:00N 47°39' W 122°20'0 0.0
2018-Jul-10 04:30N 47°39' W 122°20'0 0.0
2018-Jul-10 04:00N 47°39' W 122°20'0 0.0
2018-Jul-10 03:30N 47°39' W 122°20'0 0.0
2018-Jul-10 03:00N 47°39' W 122°20'0 0.0
2018-Jul-10 02:30N 47°39' W 122°20'0 0.0
2018-Jul-10 01:58N 47°39' W 122°20'0 0.0
2018-Jul-10 01:30N 47°39' W 122°20'0 0.0
2018-Jul-10 00:59N 47°39' W 122°20'0 0.0
2018-Jul-10 00:28N 47°39' W 122°20'0 0.0
2018-Jul-10 00:01N 47°39' W 122°20'0 0.0
2018-Jul-09 23:31N 47°39' W 122°20'0 0.0
2018-Jul-09 23:00N 47°39' W 122°20'0 0.0
2018-Jul-09 22:31N 47°39' W 122°20'0 0.0
2018-Jul-09 22:01N 47°39' W 122°20'0 0.0
2018-Jul-09 21:30N 47°39' W 122°20'0 0.0
2018-Jul-09 21:00N 47°39' W 122°20'0 0.0
2018-Jul-09 20:30N 47°39' W 122°20'0 0.0
2018-Jul-09 20:00N 47°39' W 122°20'0 0.0
2018-Jul-09 19:30N 47°39' W 122°20'0 0.0
2018-Jul-09 18:58N 47°39' W 122°20'0 0.0
2018-Jul-09 18:30N 47°39' W 122°20'0 0.0
2018-Jul-09 18:01N 47°39' W 122°20'0 0.0
2018-Jul-09 17:30N 47°39' W 122°20'0 0.0
2018-Jul-09 17:00N 47°39' W 122°20'0 0.0
2018-Jul-09 16:30N 47°39' W 122°20'0 0.0
2018-Jul-09 16:00N 47°39' W 122°20'0 0.0
2018-Jul-09 15:31N 47°39' W 122°20'0 0.0
2018-Jul-09 15:00N 47°39' W 122°20'0 0.0
2018-Jul-09 14:30N 47°39' W 122°20'0 0.0
2018-Jul-09 14:00N 47°39' W 122°20'0 0.0
2018-Jul-09 13:30N 47°39' W 122°20'0 0.0
2018-Jul-09 13:01N 47°39' W 122°20'0 0.0
2018-Jul-09 12:30N 47°39' W 122°20'0 0.0
2018-Jul-09 12:00N 47°39' W 122°20'0 0.0
2018-Jul-09 11:30N 47°39' W 122°20'0 0.0
2018-Jul-09 11:00N 47°39' W 122°20'0 0.0
2018-Jul-09 10:30N 47°39' W 122°20'0 0.0
2018-Jul-09 10:00N 47°39' W 122°20'0 0.0
2018-Jul-09 09:30N 47°39' W 122°20'0 0.0
2018-Jul-09 08:58N 47°39' W 122°20'0 0.0
2018-Jul-09 08:30N 47°39' W 122°20'0 0.0
2018-Jul-09 08:01N 47°39' W 122°20'0 0.0
2018-Jul-09 07:31N 47°39' W 122°20'0 0.0
2018-Jul-09 07:00N 47°39' W 122°20'0 0.0
2018-Jul-09 06:30N 47°39' W 122°20'0 0.0
2018-Jul-09 06:00N 47°39' W 122°20'0 0.0
2018-Jul-09 05:30N 47°39' W 122°20'0 0.0
2018-Jul-09 05:01N 47°39' W 122°20'0 0.0
2018-Jul-09 04:30N 47°39' W 122°20'0 0.0
2018-Jul-08 17:34N 47°39' W 122°20'0 0.0
2018-Jul-08 17:30N 47°39' W 122°20'0 0.0
2018-Jul-08 06:53N 47°39' W 122°20'0 0.0
2018-Jul-08 06:31N 47°39' W 122°20'0 0.0
2018-Jul-08 06:01N 47°39' W 122°20'0 0.0
2018-Jul-08 03:53N 47°39' W 122°20'0 0.8
2018-Jul-08 03:30N 47°39' W 122°20'4 4.1
2018-Jul-08 02:31N 47°37' W 122°15'0 6.4
2018-Jul-08 02:28N 47°37' W 122°15'3 5.4
2018-Jul-08 01:55N 47°39' W 122°18'1 0.3
2018-Jul-07 22:46N 47°39' W 122°20'0 0.0
2018-Jul-07 22:30N 47°39' W 122°20'0 0.0
2018-Jul-07 22:00N 47°39' W 122°20'0 0.0
2018-Jul-07 21:31N 47°39' W 122°20'0 0.0
2018-Jul-07 21:00N 47°39' W 122°20'0 0.0
2018-Jul-07 20:30N 47°39' W 122°20'0 0.0
2018-Jul-07 20:00N 47°39' W 122°20'0 0.0
2018-Jul-07 19:30N 47°39' W 122°20'0 0.0
2018-Jul-07 19:01N 47°39' W 122°20'0 0.0
2018-Jul-07 18:30N 47°39' W 122°20'0 0.0
2018-Jul-07 18:00N 47°39' W 122°20'0 0.0
2018-Jul-07 17:30N 47°39' W 122°20'0 0.0
2018-Jul-07 17:00N 47°39' W 122°20'0 0.0
2018-Jul-07 04:57N 47°39' W 122°20'4 6.9
2018-Jul-07 04:23N 47°39' W 122°14'1 2.7
2018-Jul-07 04:00N 47°39' W 122°12'5 0.1
2018-Jul-05 06:30N 47°39' W 122°20'0 0.0
2018-Jul-05 06:00N 47°39' W 122°20'1 1.1
2018-Jul-05 05:30N 47°39' W 122°20'0 0.1
2018-Jul-05 05:00N 47°39' W 122°20'0 0.0
2018-Jul-05 04:30N 47°39' W 122°20'  
Track history (hours):
 
Tides and Currents Weather Stations Pressure Air Temp Water Temp Dewpoint Dewpoint Depression Visibility Wind Speed Wind Dir Waves Ship Positions

Olympic Star

Owner: Waterways Holdings, Seattle, WA. More information available from US FCC via Universal Licensing System and Coast Guard Vessel Documentation Center.

Last reported at 2018-Jul-14 04:20 UTC. Time now 2018-Jul-16 12:41 UTC.
Position N 47°39' W 122°20'.

Length 26 m; draft 1.5 m.

Type: Passenger vessel. MMSI: 367442780.

Date/timePositionNaut miles runAvg speedWind from/ knotsBaromVisibWave heightAir tempDewpointWater temp
2018-Jul-14 04:20N 47°39' W 122°20'0 0.4
2018-Jul-14 04:00N 47°39' W 122°20'0 1.0
2018-Jul-14 03:30N 47°39' W 122°20'4 5.6
2018-Jul-14 02:50N 47°38' W 122°15'1 2.6
2018-Jul-14 02:15N 47°37' W 122°15'2 7.8
2018-Jul-14 01:59N 47°39' W 122°17'2 3.6
2018-Jul-14 01:22N 47°39' W 122°20'0 0.0
2018-Jul-14 00:24N 47°39' W 122°20'0 0.0
2018-Jul-13 23:47N 47°39' W 122°20'0 0.0
2018-Jul-13 23:17N 47°39' W 122°20'0 0.0
2018-Jul-13 22:59N 47°39' W 122°20'3 2.0
2018-Jul-13 21:16N 47°39' W 122°15'3 7.8
2018-Jul-13 20:56N 47°39' W 122°18'3 2.6
2018-Jul-13 19:41N 47°37' W 122°15'2 0.9
2018-Jul-13 17:15N 47°39' W 122°16'2 6.7
2018-Jul-13 16:57N 47°39' W 122°19'0 0.0
2018-Jul-12 21:54N 47°39' W 122°20'0 0.0
2018-Jul-12 21:30N 47°39' W 122°20'0 0.0
2018-Jul-12 21:00N 47°39' W 122°20'0 0.1
2018-Jul-12 20:30N 47°39' W 122°20'1 1.4
2018-Jul-12 20:00N 47°39' W 122°21'0 0.3
2018-Jul-12 19:30N 47°39' W 122°21'3 5.8
2018-Jul-12 19:00N 47°39' W 122°16'2 4.7
2018-Jul-12 18:30N 47°39' W 122°20'0 0.0
2018-Jul-12 18:00N 47°39' W 122°20'0 0.0
2018-Jul-12 17:30N 47°39' W 122°20'0 0.0
2018-Jul-12 17:01N 47°39' W 122°20'0 0.0
2018-Jul-12 16:30N 47°39' W 122°20'0 0.0
2018-Jul-12 16:00N 47°39' W 122°20'1 1.5
2018-Jul-12 15:30N 47°39' W 122°21'1 1.4
2018-Jul-12 15:00N 47°39' W 122°20'0 0.0
2018-Jul-12 00:48N 47°39' W 122°20'0 0.0
2018-Jul-12 00:24N 47°39' W 122°20'0 0.0
2018-Jul-12 00:00N 47°39' W 122°20'1 2.4
2018-Jul-11 23:30N 47°38' W 122°20'1 2.6
2018-Jul-11 22:58N 47°39' W 122°19'3 6.2
2018-Jul-11 22:30N 47°38' W 122°15'3 4.3
2018-Jul-11 21:55N 47°39' W 122°18'1 2.3
2018-Jul-11 21:29N 47°39' W 122°20'0 0.0
2018-Jul-11 21:00N 47°39' W 122°20'0 0.0
2018-Jul-11 20:29N 47°39' W 122°20'0 0.0
2018-Jul-11 20:00N 47°39' W 122°20'0 0.2
2018-Jul-11 19:31N 47°39' W 122°20'0 0.2
2018-Jul-11 19:01N 47°39' W 122°20'0 0.0
2018-Jul-11 18:30N 47°39' W 122°20'0 0.0
2018-Jul-11 18:00N 47°39' W 122°20'0 0.0
2018-Jul-11 17:30N 47°39' W 122°20'0 0.0
2018-Jul-11 17:00N 47°39' W 122°20'0 0.0
2018-Jul-11 16:29N 47°39' W 122°20'0 0.0
2018-Jul-11 15:59N 47°39' W 122°20'0 0.0
2018-Jul-11 15:31N 47°39' W 122°20'0 0.0
2018-Jul-11 15:00N 47°39' W 122°20'0 0.0
2018-Jul-11 14:30N 47°39' W 122°20'0 0.0
2018-Jul-11 14:00N 47°39' W 122°20'0 0.0
2018-Jul-11 13:30N 47°39' W 122°20'0 0.0
2018-Jul-11 13:00N 47°39' W 122°20'0 0.0
2018-Jul-11 12:30N 47°39' W 122°20'0 0.0
2018-Jul-11 12:00N 47°39' W 122°20'0 0.0
2018-Jul-11 11:31N 47°39' W 122°20'0 0.0
2018-Jul-11 11:00N 47°39' W 122°20'0 0.0
2018-Jul-11 10:31N 47°39' W 122°20'0 0.0
2018-Jul-11 10:01N 47°39' W 122°20'0 0.0
2018-Jul-11 09:31N 47°39' W 122°20'0 0.0
2018-Jul-11 09:01N 47°39' W 122°20'0 0.0
2018-Jul-11 08:31N 47°39' W 122°20'0 0.0
2018-Jul-11 08:01N 47°39' W 122°20'0 0.0
2018-Jul-11 07:30N 47°39' W 122°20'0 0.0
2018-Jul-11 07:00N 47°39' W 122°20'0 0.0
2018-Jul-11 06:30N 47°39' W 122°20'0 0.0
2018-Jul-11 06:01N 47°39' W 122°20'0 0.0
2018-Jul-11 05:31N 47°39' W 122°20'0 0.0
2018-Jul-11 04:59N 47°39' W 122°20'0 0.0
2018-Jul-11 04:30N 47°39' W 122°20'0 0.0
2018-Jul-11 04:00N 47°39' W 122°20'0 0.0
2018-Jul-11 03:30N 47°39' W 122°20'0 0.0
2018-Jul-11 03:01N 47°39' W 122°20'0 0.0
2018-Jul-11 02:30N 47°39' W 122°20'0 0.0
2018-Jul-11 02:00N 47°39' W 122°20'0 0.0
2018-Jul-11 01:30N 47°39' W 122°20'0 0.0
2018-Jul-11 01:01N 47°39' W 122°20'0 0.0
2018-Jul-11 00:30N 47°39' W 122°20'0 0.0
2018-Jul-11 00:00N 47°39' W 122°20'0 0.0
2018-Jul-10 23:30N 47°39' W 122°20'0 0.0
2018-Jul-10 23:00N 47°39' W 122°20'0 0.0
2018-Jul-10 22:30N 47°39' W 122°20'0 0.0
2018-Jul-10 22:00N 47°39' W 122°20'0 0.0
2018-Jul-10 21:30N 47°39' W 122°20'0 0.0
2018-Jul-10 21:00N 47°39' W 122°20'0 0.0
2018-Jul-10 20:30N 47°39' W 122°20'0 0.0
2018-Jul-10 20:00N 47°39' W 122°20'0 0.0
2018-Jul-10 19:30N 47°39' W 122°20'0 0.0
2018-Jul-10 19:00N 47°39' W 122°20'0 0.0
2018-Jul-10 18:30N 47°39' W 122°20'0 0.0
2018-Jul-10 18:00N 47°39' W 122°20'0 0.0
2018-Jul-10 17:31N 47°39' W 122°20'0 0.0
2018-Jul-10 17:01N 47°39' W 122°20'0 0.0
2018-Jul-10 16:30N 47°39' W 122°20'0 0.0
2018-Jul-10 16:00N 47°39' W 122°20'0 0.0
2018-Jul-10 15:31N 47°39' W 122°20'0 0.0
2018-Jul-10 15:01N 47°39' W 122°20'0 0.0
2018-Jul-10 14:30N 47°39' W 122°20'0 0.0
2018-Jul-10 13:57N 47°39' W 122°20'0 0.0
2018-Jul-10 13:30N 47°39' W 122°20'0 0.0
2018-Jul-10 13:00N 47°39' W 122°20'0 0.0
2018-Jul-10 12:30N 47°39' W 122°20'0 0.0
2018-Jul-10 12:00N 47°39' W 122°20'0 0.0
2018-Jul-10 11:30N 47°39' W 122°20'0 0.0
2018-Jul-10 11:00N 47°39' W 122°20'0 0.0
2018-Jul-10 10:30N 47°39' W 122°20'0 0.0
2018-Jul-10 10:00N 47°39' W 122°20'0 0.0
2018-Jul-10 09:30N 47°39' W 122°20'0 0.0
2018-Jul-10 09:01N 47°39' W 122°20'0 0.0
2018-Jul-10 08:31N 47°39' W 122°20'0 0.0
2018-Jul-10 08:01N 47°39' W 122°20'0 0.0
2018-Jul-10 07:30N 47°39' W 122°20'0 0.0
2018-Jul-10 07:01N 47°39' W 122°20'0 0.0
2018-Jul-10 06:30N 47°39' W 122°20'0 0.0
2018-Jul-10 06:00N 47°39' W 122°20'0 0.0
2018-Jul-10 05:30N 47°39' W 122°20'0 0.0
2018-Jul-10 05:00N 47°39' W 122°20'0 0.0
2018-Jul-10 04:30N 47°39' W 122°20'0 0.0
2018-Jul-10 04:00N 47°39' W 122°20'0 0.0
2018-Jul-10 03:30N 47°39' W 122°20'0 0.0
2018-Jul-10 03:00N 47°39' W 122°20'0 0.0
2018-Jul-10 02:30N 47°39' W 122°20'0 0.0
2018-Jul-10 01:58N 47°39' W 122°20'0 0.0
2018-Jul-10 01:30N 47°39' W 122°20'0 0.0
2018-Jul-10 00:59N 47°39' W 122°20'0 0.0
2018-Jul-10 00:28N 47°39' W 122°20'0 0.0
2018-Jul-10 00:01N 47°39' W 122°20'0 0.0
2018-Jul-09 23:31N 47°39' W 122°20'0 0.0
2018-Jul-09 23:00N 47°39' W 122°20'0 0.0
2018-Jul-09 22:31N 47°39' W 122°20'0 0.0
2018-Jul-09 22:01N 47°39' W 122°20'0 0.0
2018-Jul-09 21:30N 47°39' W 122°20'0 0.0
2018-Jul-09 21:00N 47°39' W 122°20'0 0.0
2018-Jul-09 20:30N 47°39' W 122°20'0 0.0
2018-Jul-09 20:00N 47°39' W 122°20'0 0.0
2018-Jul-09 19:30N 47°39' W 122°20'0 0.0
2018-Jul-09 18:58N 47°39' W 122°20'0 0.0
2018-Jul-09 18:30N 47°39' W 122°20'0 0.0
2018-Jul-09 18:01N 47°39' W 122°20'0 0.0
2018-Jul-09 17:30N 47°39' W 122°20'0 0.0
2018-Jul-09 17:00N 47°39' W 122°20'0 0.0
2018-Jul-09 16:30N 47°39' W 122°20'0 0.0
2018-Jul-09 16:00N 47°39' W 122°20'0 0.0
2018-Jul-09 15:31N 47°39' W 122°20'0 0.0
2018-Jul-09 15:00N 47°39' W 122°20'0 0.0
2018-Jul-09 14:30N 47°39' W 122°20'0 0.0
2018-Jul-09 14:00N 47°39' W 122°20'0 0.0
2018-Jul-09 13:30N 47°39' W 122°20'0 0.0
2018-Jul-09 13:01N 47°39' W 122°20'0 0.0
2018-Jul-09 12:30N 47°39' W 122°20'0 0.0
2018-Jul-09 12:00N 47°39' W 122°20'0 0.0
2018-Jul-09 11:30N 47°39' W 122°20'0 0.0
2018-Jul-09 11:00N 47°39' W 122°20'0 0.0
2018-Jul-09 10:30N 47°39' W 122°20'0 0.0
2018-Jul-09 10:00N 47°39' W 122°20'0 0.0
2018-Jul-09 09:30N 47°39' W 122°20'0 0.0
2018-Jul-09 08:58N 47°39' W 122°20'0 0.0
2018-Jul-09 08:30N 47°39' W 122°20'0 0.0
2018-Jul-09 08:01N 47°39' W 122°20'0 0.0
2018-Jul-09 07:31N 47°39' W 122°20'0 0.0
2018-Jul-09 07:00N 47°39' W 122°20'0 0.0
2018-Jul-09 06:30N 47°39' W 122°20'0 0.0
2018-Jul-09 06:00N 47°39' W 122°20'0 0.0
2018-Jul-09 05:30N 47°39' W 122°20'0 0.0
2018-Jul-09 05:01N 47°39' W 122°20'0 0.0
2018-Jul-09 04:30N 47°39' W 122°20'0 0.0
2018-Jul-08 17:34N 47°39' W 122°20'0 0.0
2018-Jul-08 17:30N 47°39' W 122°20'0 0.0
2018-Jul-08 06:53N 47°39' W 122°20'0 0.0
2018-Jul-08 06:31N 47°39' W 122°20'0 0.0
2018-Jul-08 06:01N 47°39' W 122°20'0 0.0
2018-Jul-08 03:53N 47°39' W 122°20'0 0.8
2018-Jul-08 03:30N 47°39' W 122°20'4 4.1
2018-Jul-08 02:31N 47°37' W 122°15'0 6.4
2018-Jul-08 02:28N 47°37' W 122°15'3 5.4
2018-Jul-08 01:55N 47°39' W 122°18'1 0.3
2018-Jul-07 22:46N 47°39' W 122°20'0 0.0
2018-Jul-07 22:30N 47°39' W 122°20'0 0.0
2018-Jul-07 22:00N 47°39' W 122°20'0 0.0
2018-Jul-07 21:31N 47°39' W 122°20'0 0.0
2018-Jul-07 21:00N 47°39' W 122°20'0 0.0
2018-Jul-07 20:30N 47°39' W 122°20'0 0.0
2018-Jul-07 20:00N 47°39' W 122°20'0 0.0
2018-Jul-07 19:30N 47°39' W 122°20'0 0.0
2018-Jul-07 19:01N 47°39' W 122°20'0 0.0
2018-Jul-07 18:30N 47°39' W 122°20'0 0.0
2018-Jul-07 18:00N 47°39' W 122°20'0 0.0
2018-Jul-07 17:30N 47°39' W 122°20'0 0.0
2018-Jul-07 17:00N 47°39' W 122°20'0 0.0
2018-Jul-07 04:57N 47°39' W 122°20'4 6.9
2018-Jul-07 04:23N 47°39' W 122°14'1 2.7
2018-Jul-07 04:00N 47°39' W 122°12'5 0.1
2018-Jul-05 06:30N 47°39' W 122°20'0 0.0
2018-Jul-05 06:00N 47°39' W 122°20'1 1.1
2018-Jul-05 05:30N 47°39' W 122°20'0 0.1
2018-Jul-05 05:00N 47°39' W 122°20'0 0.0
2018-Jul-05 04:30N 47°39' W 122°20'  

Dump ship's entire track history